sensor_id;sensor_type;location;lat;lon;timestamp;P1;durP1;ratioP1;P2;durP2;ratioP2
2119;SDS011;1066;52.540;13.420;2022-08-11T00:01:45;3.97;;;3.00;;
2119;SDS011;1066;52.540;13.420;2022-08-11T00:04:12;3.53;;;2.80;;
2119;SDS011;1066;52.540;13.420;2022-08-11T00:06:39;3.70;;;2.73;;
2119;SDS011;1066;52.540;13.420;2022-08-11T00:09:09;5.40;;;3.10;;
2119;SDS011;1066;52.540;13.420;2022-08-11T00:11:37;3.07;;;2.30;;
2119;SDS011;1066;52.540;13.420;2022-08-11T00:14:12;4.60;;;2.07;;
2119;SDS011;1066;52.540;13.420;2022-08-11T00:16:39;4.50;;;3.17;;
2119;SDS011;1066;52.540;13.420;2022-08-11T00:19:05;3.73;;;2.67;;
2119;SDS011;1066;52.540;13.420;2022-08-11T00:21:31;3.70;;;2.77;;
2119;SDS011;1066;52.540;13.420;2022-08-11T00:24:06;2.50;;;2.30;;
2119;SDS011;1066;52.540;13.420;2022-08-11T00:26:32;5.90;;;2.90;;
2119;SDS011;1066;52.540;13.420;2022-08-11T00:29:11;5.67;;;2.63;;
2119;SDS011;1066;52.540;13.420;2022-08-11T00:31:37;3.60;;;2.40;;
2119;SDS011;1066;52.540;13.420;2022-08-11T00:34:09;3.00;;;2.63;;
2119;SDS011;1066;52.540;13.420;2022-08-11T00:36:42;11.20;;;3.00;;
2119;SDS011;1066;52.540;13.420;2022-08-11T00:39:11;3.20;;;3.00;;
2119;SDS011;1066;52.540;13.420;2022-08-11T00:44:16;3.83;;;2.87;;
2119;SDS011;1066;52.540;13.420;2022-08-11T00:52:49;4.37;;;3.03;;
2119;SDS011;1066;52.540;13.420;2022-08-11T00:58:21;4.30;;;2.90;;
2119;SDS011;1066;52.540;13.420;2022-08-11T01:01:39;3.77;;;2.37;;
2119;SDS011;1066;52.540;13.420;2022-08-11T01:04:01;3.07;;;2.77;;
2119;SDS011;1066;52.540;13.420;2022-08-11T01:18:15;6.33;;;2.70;;
2119;SDS011;1066;52.540;13.420;2022-08-11T01:21:16;3.60;;;2.80;;
2119;SDS011;1066;52.540;13.420;2022-08-11T01:40:29;5.33;;;3.00;;
2119;SDS011;1066;52.540;13.420;2022-08-11T01:43:09;2.80;;;2.53;;
2119;SDS011;1066;52.540;13.420;2022-08-11T01:46:33;3.77;;;2.93;;
2119;SDS011;1066;52.540;13.420;2022-08-11T01:54:17;2.97;;;2.67;;
2119;SDS011;1066;52.540;13.420;2022-08-11T01:59:42;3.13;;;2.60;;
2119;SDS011;1066;52.540;13.420;2022-08-11T02:04:51;5.30;;;3.50;;
2119;SDS011;1066;52.540;13.420;2022-08-11T02:07:27;4.33;;;2.10;;
2119;SDS011;1066;52.540;13.420;2022-08-11T02:15:49;2.93;;;2.63;;
2119;SDS011;1066;52.540;13.420;2022-08-11T02:18:20;6.10;;;2.90;;
2119;SDS011;1066;52.540;13.420;2022-08-11T02:20:55;3.43;;;2.97;;
2119;SDS011;1066;52.540;13.420;2022-08-11T02:27:00;2.57;;;2.10;;
2119;SDS011;1066;52.540;13.420;2022-08-11T02:32:14;4.33;;;3.10;;
2119;SDS011;1066;52.540;13.420;2022-08-11T02:35:18;3.03;;;2.77;;
2119;SDS011;1066;52.540;13.420;2022-08-11T02:43:52;2.93;;;2.70;;
2119;SDS011;1066;52.540;13.420;2022-08-11T02:46:32;3.30;;;2.90;;
2119;SDS011;1066;52.540;13.420;2022-08-11T02:49:12;3.83;;;3.50;;
2119;SDS011;1066;52.540;13.420;2022-08-11T02:52:08;3.27;;;2.87;;
2119;SDS011;1066;52.540;13.420;2022-08-11T02:57:32;3.97;;;3.03;;
2119;SDS011;1066;52.540;13.420;2022-08-11T03:00:09;5.40;;;3.20;;
2119;SDS011;1066;52.540;13.420;2022-08-11T03:16:59;3.93;;;2.77;;
2119;SDS011;1066;52.540;13.420;2022-08-11T03:30:31;3.40;;;3.10;;
2119;SDS011;1066;52.540;13.420;2022-08-11T03:41:37;4.17;;;3.57;;
2119;SDS011;1066;52.540;13.420;2022-08-11T03:50:21;5.13;;;3.90;;
2119;SDS011;1066;52.540;13.420;2022-08-11T03:53:17;3.97;;;3.50;;
2119;SDS011;1066;52.540;13.420;2022-08-11T04:01:43;3.77;;;3.30;;
2119;SDS011;1066;52.540;13.420;2022-08-11T04:18:35;6.53;;;3.30;;
2119;SDS011;1066;52.540;13.420;2022-08-11T04:23:53;4.90;;;3.77;;
2119;SDS011;1066;52.540;13.420;2022-08-11T04:37:47;5.63;;;4.20;;
2119;SDS011;1066;52.540;13.420;2022-08-11T04:40:33;6.73;;;3.77;;
2119;SDS011;1066;52.540;13.420;2022-08-11T04:46:02;5.97;;;4.43;;
2119;SDS011;1066;52.540;13.420;2022-08-11T04:58:43;5.40;;;4.97;;
2119;SDS011;1066;52.540;13.420;2022-08-11T05:06:56;5.00;;;4.27;;
2119;SDS011;1066;52.540;13.420;2022-08-11T05:09:39;6.30;;;4.60;;
2119;SDS011;1066;52.540;13.420;2022-08-11T05:14:50;4.63;;;4.13;;
2119;SDS011;1066;52.540;13.420;2022-08-11T05:17:45;5.10;;;4.60;;
2119;SDS011;1066;52.540;13.420;2022-08-11T05:20:45;7.10;;;4.27;;
2119;SDS011;1066;52.540;13.420;2022-08-11T05:23:31;4.70;;;4.20;;
2119;SDS011;1066;52.540;13.420;2022-08-11T05:26:16;6.43;;;5.10;;
2119;SDS011;1066;52.540;13.420;2022-08-11T05:29:01;8.03;;;5.83;;
2119;SDS011;1066;52.540;13.420;2022-08-11T05:31:49;7.13;;;5.20;;
2119;SDS011;1066;52.540;13.420;2022-08-11T05:34:45;5.47;;;4.87;;
2119;SDS011;1066;52.540;13.420;2022-08-11T05:37:19;8.60;;;6.30;;
2119;SDS011;1066;52.540;13.420;2022-08-11T05:40:05;6.17;;;5.40;;
2119;SDS011;1066;52.540;13.420;2022-08-11T05:42:54;6.10;;;5.50;;
2119;SDS011;1066;52.540;13.420;2022-08-11T05:45:40;5.87;;;5.27;;
2119;SDS011;1066;52.540;13.420;2022-08-11T05:48:31;5.97;;;5.37;;
2119;SDS011;1066;52.540;13.420;2022-08-11T05:51:16;7.70;;;6.00;;
2119;SDS011;1066;52.540;13.420;2022-08-11T05:54:00;7.97;;;6.83;;
2119;SDS011;1066;52.540;13.420;2022-08-11T05:56:48;6.80;;;6.20;;
2119;SDS011;1066;52.540;13.420;2022-08-11T05:59:20;5.73;;;5.20;;
2119;SDS011;1066;52.540;13.420;2022-08-11T06:01:47;5.97;;;5.30;;
2119;SDS011;1066;52.540;13.420;2022-08-11T06:04:20;8.43;;;5.93;;
2119;SDS011;1066;52.540;13.420;2022-08-11T06:06:49;6.93;;;5.83;;
2119;SDS011;1066;52.540;13.420;2022-08-11T06:09:26;6.00;;;5.40;;
2119;SDS011;1066;52.540;13.420;2022-08-11T06:12:03;14.33;;;7.27;;
2119;SDS011;1066;52.540;13.420;2022-08-11T06:14:32;6.03;;;5.60;;
2119;SDS011;1066;52.540;13.420;2022-08-11T06:16:59;7.23;;;5.80;;
2119;SDS011;1066;52.540;13.420;2022-08-11T06:19:32;6.13;;;5.63;;
2119;SDS011;1066;52.540;13.420;2022-08-11T06:22:00;5.67;;;5.17;;
2119;SDS011;1066;52.540;13.420;2022-08-11T06:24:26;6.03;;;5.07;;
2119;SDS011;1066;52.540;13.420;2022-08-11T06:26:53;6.83;;;5.77;;
2119;SDS011;1066;52.540;13.420;2022-08-11T06:29:19;7.90;;;5.30;;
2119;SDS011;1066;52.540;13.420;2022-08-11T06:31:50;5.40;;;4.90;;
2119;SDS011;1066;52.540;13.420;2022-08-11T06:37:14;7.03;;;5.40;;
2119;SDS011;1066;52.540;13.420;2022-08-11T06:42:10;10.00;;;5.60;;
2119;SDS011;1066;52.540;13.420;2022-08-11T06:47:07;5.10;;;4.60;;
2119;SDS011;1066;52.540;13.420;2022-08-11T06:49:35;5.20;;;4.77;;
2119;SDS011;1066;52.540;13.420;2022-08-11T06:52:32;7.57;;;4.73;;
2119;SDS011;1066;52.540;13.420;2022-08-11T06:55:04;8.77;;;5.37;;
2119;SDS011;1066;52.540;13.420;2022-08-11T06:57:35;5.43;;;4.93;;
2119;SDS011;1066;52.540;13.420;2022-08-11T07:00:20;5.13;;;4.67;;
2119;SDS011;1066;52.540;13.420;2022-08-11T07:02:58;6.90;;;5.40;;
2119;SDS011;1066;52.540;13.420;2022-08-11T07:14:52;5.70;;;4.03;;
2119;SDS011;1066;52.540;13.420;2022-08-11T07:17:45;6.43;;;5.23;;
2119;SDS011;1066;52.540;13.420;2022-08-11T07:20:37;5.60;;;5.10;;
2119;SDS011;1066;52.540;13.420;2022-08-11T07:23:22;5.63;;;4.70;;
2119;SDS011;1066;52.540;13.420;2022-08-11T07:26:06;6.53;;;4.40;;
2119;SDS011;1066;52.540;13.420;2022-08-11T07:28:51;5.63;;;4.27;;
2119;SDS011;1066;52.540;13.420;2022-08-11T07:31:28;5.67;;;5.00;;
2119;SDS011;1066;52.540;13.420;2022-08-11T07:33:58;5.10;;;4.60;;
2119;SDS011;1066;52.540;13.420;2022-08-11T07:36:46;6.40;;;4.40;;
2119;SDS011;1066;52.540;13.420;2022-08-11T07:39:17;6.20;;;4.90;;
2119;SDS011;1066;52.540;13.420;2022-08-11T07:41:45;10.00;;;5.00;;
2119;SDS011;1066;52.540;13.420;2022-08-11T07:44:11;9.07;;;4.33;;
2119;SDS011;1066;52.540;13.420;2022-08-11T07:46:41;7.23;;;4.97;;
2119;SDS011;1066;52.540;13.420;2022-08-11T07:49:36;7.00;;;5.00;;
2119;SDS011;1066;52.540;13.420;2022-08-11T07:52:24;5.90;;;4.47;;
2119;SDS011;1066;52.540;13.420;2022-08-11T07:55:01;7.60;;;5.00;;
2119;SDS011;1066;52.540;13.420;2022-08-11T07:57:29;5.50;;;4.10;;
2119;SDS011;1066;52.540;13.420;2022-08-11T08:00:14;6.57;;;4.80;;
2119;SDS011;1066;52.540;13.420;2022-08-11T08:02:58;8.23;;;5.00;;
2119;SDS011;1066;52.540;13.420;2022-08-11T08:05:44;5.83;;;4.70;;
2119;SDS011;1066;52.540;13.420;2022-08-11T08:08:29;8.03;;;4.87;;
2119;SDS011;1066;52.540;13.420;2022-08-11T08:11:13;5.07;;;4.57;;
2119;SDS011;1066;52.540;13.420;2022-08-11T08:13:57;6.47;;;4.50;;
2119;SDS011;1066;52.540;13.420;2022-08-11T08:16:42;6.70;;;3.80;;
2119;SDS011;1066;52.540;13.420;2022-08-11T08:19:26;6.87;;;4.53;;
2119;SDS011;1066;52.540;13.420;2022-08-11T08:21:52;8.77;;;4.90;;
2119;SDS011;1066;52.540;13.420;2022-08-11T08:24:18;6.30;;;4.77;;
2119;SDS011;1066;52.540;13.420;2022-08-11T08:26:47;7.57;;;4.73;;
2119;SDS011;1066;52.540;13.420;2022-08-11T08:29:30;10.30;;;4.47;;
2119;SDS011;1066;52.540;13.420;2022-08-11T08:32:15;5.73;;;4.10;;
2119;SDS011;1066;52.540;13.420;2022-08-11T08:34:41;4.83;;;4.07;;
2119;SDS011;1066;52.540;13.420;2022-08-11T08:37:07;6.57;;;4.27;;
2119;SDS011;1066;52.540;13.420;2022-08-11T08:39:33;4.73;;;4.20;;
2119;SDS011;1066;52.540;13.420;2022-08-11T08:42:02;8.13;;;4.60;;
2119;SDS011;1066;52.540;13.420;2022-08-11T08:44:31;5.80;;;3.93;;
2119;SDS011;1066;52.540;13.420;2022-08-11T08:46:58;4.73;;;4.20;;
2119;SDS011;1066;52.540;13.420;2022-08-11T08:49:26;4.80;;;3.80;;
2119;SDS011;1066;52.540;13.420;2022-08-11T08:51:57;7.80;;;4.57;;
2119;SDS011;1066;52.540;13.420;2022-08-11T08:54:28;7.33;;;6.53;;
2119;SDS011;1066;52.540;13.420;2022-08-11T08:56:57;5.90;;;4.73;;
2119;SDS011;1066;52.540;13.420;2022-08-11T08:59:24;5.80;;;4.77;;
2119;SDS011;1066;52.540;13.420;2022-08-11T09:01:57;7.27;;;5.40;;
2119;SDS011;1066;52.540;13.420;2022-08-11T09:04:25;5.70;;;5.03;;
2119;SDS011;1066;52.540;13.420;2022-08-11T09:06:50;6.20;;;5.70;;
2119;SDS011;1066;52.540;13.420;2022-08-11T09:09:17;5.07;;;4.40;;
2119;SDS011;1066;52.540;13.420;2022-08-11T09:11:44;6.87;;;4.73;;
2119;SDS011;1066;52.540;13.420;2022-08-11T09:14:15;5.23;;;4.73;;
2119;SDS011;1066;52.540;13.420;2022-08-11T09:16:41;5.47;;;4.90;;
2119;SDS011;1066;52.540;13.420;2022-08-11T09:19:08;5.63;;;4.50;;
2119;SDS011;1066;52.540;13.420;2022-08-11T09:21:34;4.13;;;3.73;;
2119;SDS011;1066;52.540;13.420;2022-08-11T09:23:59;5.50;;;5.00;;
2119;SDS011;1066;52.540;13.420;2022-08-11T09:26:44;4.47;;;3.73;;
2119;SDS011;1066;52.540;13.420;2022-08-11T09:29:27;4.20;;;3.90;;
2119;SDS011;1066;52.540;13.420;2022-08-11T09:31:53;6.17;;;5.57;;
2119;SDS011;1066;52.540;13.420;2022-08-11T09:34:18;5.60;;;5.10;;
2119;SDS011;1066;52.540;13.420;2022-08-11T09:36:44;6.17;;;4.20;;
2119;SDS011;1066;52.540;13.420;2022-08-11T09:39:29;4.70;;;3.87;;
2119;SDS011;1066;52.540;13.420;2022-08-11T09:42:13;3.93;;;3.53;;
2119;SDS011;1066;52.540;13.420;2022-08-11T09:44:39;5.10;;;4.70;;
2119;SDS011;1066;52.540;13.420;2022-08-11T09:49:45;5.27;;;4.40;;
2119;SDS011;1066;52.540;13.420;2022-08-11T09:52:13;4.13;;;3.63;;
2119;SDS011;1066;52.540;13.420;2022-08-11T09:54:41;5.00;;;4.50;;
2119;SDS011;1066;52.540;13.420;2022-08-11T09:57:07;6.10;;;5.13;;
2119;SDS011;1066;52.540;13.420;2022-08-11T09:59:51;6.30;;;5.80;;
2119;SDS011;1066;52.540;13.420;2022-08-11T10:02:17;6.63;;;4.70;;
2119;SDS011;1066;52.540;13.420;2022-08-11T10:04:47;4.27;;;3.97;;
2119;SDS011;1066;52.540;13.420;2022-08-11T10:07:14;4.53;;;4.10;;
2119;SDS011;1066;52.540;13.420;2022-08-11T10:09:41;5.80;;;5.30;;
2119;SDS011;1066;52.540;13.420;2022-08-11T10:12:11;8.40;;;6.20;;
2119;SDS011;1066;52.540;13.420;2022-08-11T10:15:03;5.70;;;5.20;;
2119;SDS011;1066;52.540;13.420;2022-08-11T10:17:52;4.87;;;4.37;;
2119;SDS011;1066;52.540;13.420;2022-08-11T10:20:40;5.37;;;4.83;;
2119;SDS011;1066;52.540;13.420;2022-08-11T10:23:07;6.33;;;4.50;;
2119;SDS011;1066;52.540;13.420;2022-08-11T10:25:53;4.80;;;3.23;;
2119;SDS011;1066;52.540;13.420;2022-08-11T10:28:37;3.70;;;3.40;;
2119;SDS011;1066;52.540;13.420;2022-08-11T10:31:03;7.80;;;4.50;;
2119;SDS011;1066;52.540;13.420;2022-08-11T10:33:47;4.27;;;3.87;;
2119;SDS011;1066;52.540;13.420;2022-08-11T10:36:26;5.13;;;4.33;;
2119;SDS011;1066;52.540;13.420;2022-08-11T10:38:53;7.53;;;6.57;;
2119;SDS011;1066;52.540;13.420;2022-08-11T10:41:19;5.23;;;4.73;;
2119;SDS011;1066;52.540;13.420;2022-08-11T10:44:04;5.90;;;4.90;;
2119;SDS011;1066;52.540;13.420;2022-08-11T10:46:30;4.93;;;4.57;;
2119;SDS011;1066;52.540;13.420;2022-08-11T10:49:15;5.27;;;4.87;;
2119;SDS011;1066;52.540;13.420;2022-08-11T10:51:40;8.37;;;7.67;;
2119;SDS011;1066;52.540;13.420;2022-08-11T10:54:24;6.67;;;6.17;;
2119;SDS011;1066;52.540;13.420;2022-08-11T10:57:08;6.50;;;4.80;;
2119;SDS011;1066;52.540;13.420;2022-08-11T10:59:52;4.77;;;4.37;;
2119;SDS011;1066;52.540;13.420;2022-08-11T11:02:19;4.20;;;3.80;;
2119;SDS011;1066;52.540;13.420;2022-08-11T11:07:23;4.47;;;3.50;;
2119;SDS011;1066;52.540;13.420;2022-08-11T11:09:55;4.50;;;4.10;;
2119;SDS011;1066;52.540;13.420;2022-08-11T11:15:10;7.20;;;4.10;;
2119;SDS011;1066;52.540;13.420;2022-08-11T11:18:01;4.10;;;3.70;;
2119;SDS011;1066;52.540;13.420;2022-08-11T11:23:14;5.33;;;3.97;;
2119;SDS011;1066;52.540;13.420;2022-08-11T11:25:50;7.43;;;4.37;;
2119;SDS011;1066;52.540;13.420;2022-08-11T11:39:09;3.53;;;3.23;;
2119;SDS011;1066;52.540;13.420;2022-08-11T11:41:34;3.90;;;3.60;;
2119;SDS011;1066;52.540;13.420;2022-08-11T11:44:00;4.07;;;3.43;;
2119;SDS011;1066;52.540;13.420;2022-08-11T11:46:26;4.10;;;3.70;;
2119;SDS011;1066;52.540;13.420;2022-08-11T11:48:53;4.20;;;3.77;;
2119;SDS011;1066;52.540;13.420;2022-08-11T11:51:20;3.43;;;3.13;;
2119;SDS011;1066;52.540;13.420;2022-08-11T11:53:47;4.07;;;2.93;;
2119;SDS011;1066;52.540;13.420;2022-08-11T11:56:12;3.83;;;3.53;;
2119;SDS011;1066;52.540;13.420;2022-08-11T11:58:38;4.60;;;3.67;;
2119;SDS011;1066;52.540;13.420;2022-08-11T12:01:23;8.40;;;3.70;;
2119;SDS011;1066;52.540;13.420;2022-08-11T12:03:49;5.60;;;3.07;;
2119;SDS011;1066;52.540;13.420;2022-08-11T12:06:17;3.72;;;3.42;;
2119;SDS011;1066;52.540;13.420;2022-08-11T12:08:46;3.42;;;3.13;;
2119;SDS011;1066;52.540;13.420;2022-08-11T12:11:13;5.15;;;3.55;;
2119;SDS011;1066;52.540;13.420;2022-08-11T12:13:59;4.00;;;3.60;;
2119;SDS011;1066;52.540;13.420;2022-08-11T12:16:27;6.20;;;4.75;;
2119;SDS011;1066;52.540;13.420;2022-08-11T12:18:54;4.50;;;4.03;;
2119;SDS011;1066;52.540;13.420;2022-08-11T12:21:22;8.00;;;6.70;;
2119;SDS011;1066;52.540;13.420;2022-08-11T12:23:48;8.18;;;7.25;;
2119;SDS011;1066;52.540;13.420;2022-08-11T12:26:32;14.10;;;10.23;;
2119;SDS011;1066;52.540;13.420;2022-08-11T12:29:14;8.23;;;7.40;;
2119;SDS011;1066;52.540;13.420;2022-08-11T12:31:41;6.43;;;5.10;;
2119;SDS011;1066;52.540;13.420;2022-08-11T12:34:07;3.60;;;3.13;;
2119;SDS011;1066;52.540;13.420;2022-08-11T12:36:36;5.43;;;3.53;;
2119;SDS011;1066;52.540;13.420;2022-08-11T12:39:22;4.25;;;3.85;;
2119;SDS011;1066;52.540;13.420;2022-08-11T12:42:09;4.78;;;4.22;;
2119;SDS011;1066;52.540;13.420;2022-08-11T12:44:54;6.78;;;4.95;;
2119;SDS011;1066;52.540;13.420;2022-08-11T12:47:39;6.45;;;4.78;;
2119;SDS011;1066;52.540;13.420;2022-08-11T12:50:30;5.85;;;4.20;;
2119;SDS011;1066;52.540;13.420;2022-08-11T12:53:15;3.90;;;3.60;;
2119;SDS011;1066;52.540;13.420;2022-08-11T12:55:42;4.03;;;3.58;;
2119;SDS011;1066;52.540;13.420;2022-08-11T12:58:26;4.90;;;3.45;;
2119;SDS011;1066;52.540;13.420;2022-08-11T13:00:52;3.95;;;3.65;;
2119;SDS011;1066;52.540;13.420;2022-08-11T13:03:36;5.82;;;5.22;;
2119;SDS011;1066;52.540;13.420;2022-08-11T13:06:22;4.30;;;3.95;;
2119;SDS011;1066;52.540;13.420;2022-08-11T13:08:48;4.10;;;3.22;;
2119;SDS011;1066;52.540;13.420;2022-08-11T13:11:14;5.40;;;3.30;;
2119;SDS011;1066;52.540;13.420;2022-08-11T13:13:59;4.45;;;2.95;;
2119;SDS011;1066;52.540;13.420;2022-08-11T13:16:28;25.73;;;23.73;;
2119;SDS011;1066;52.540;13.420;2022-08-11T13:19:18;11.23;;;10.23;;
2119;SDS011;1066;52.540;13.420;2022-08-11T13:21:45;5.53;;;5.07;;
2119;SDS011;1066;52.540;13.420;2022-08-11T13:24:11;27.40;;;25.00;;
2119;SDS011;1066;52.540;13.420;2022-08-11T13:26:37;18.80;;;16.88;;
2119;SDS011;1066;52.540;13.420;2022-08-11T13:29:02;16.35;;;15.10;;
2119;SDS011;1066;52.540;13.420;2022-08-11T13:31:28;22.58;;;20.77;;
2119;SDS011;1066;52.540;13.420;2022-08-11T13:33:53;16.08;;;14.65;;
2119;SDS011;1066;52.540;13.420;2022-08-11T13:36:19;16.88;;;15.10;;
2119;SDS011;1066;52.540;13.420;2022-08-11T13:38:47;22.85;;;21.20;;
2119;SDS011;1066;52.540;13.420;2022-08-11T13:41:13;29.92;;;27.85;;
2119;SDS011;1066;52.540;13.420;2022-08-11T13:43:57;9.82;;;8.80;;
2119;SDS011;1066;52.540;13.420;2022-08-11T13:46:23;5.35;;;3.70;;
2119;SDS011;1066;52.540;13.420;2022-08-11T13:48:52;7.95;;;3.63;;
2119;SDS011;1066;52.540;13.420;2022-08-11T13:51:19;4.18;;;3.80;;
2119;SDS011;1066;52.540;13.420;2022-08-11T13:53:55;3.40;;;2.85;;
2119;SDS011;1066;52.540;13.420;2022-08-11T13:56:31;2.47;;;2.28;;
2119;SDS011;1066;52.540;13.420;2022-08-11T13:58:57;4.00;;;2.53;;
2119;SDS011;1066;52.540;13.420;2022-08-11T14:01:28;4.60;;;2.40;;
2119;SDS011;1066;52.540;13.420;2022-08-11T14:03:57;4.20;;;2.72;;
2119;SDS011;1066;52.540;13.420;2022-08-11T14:06:34;2.80;;;2.50;;
2119;SDS011;1066;52.540;13.420;2022-08-11T14:09:00;2.70;;;2.50;;
2119;SDS011;1066;52.540;13.420;2022-08-11T14:11:27;4.20;;;3.00;;
2119;SDS011;1066;52.540;13.420;2022-08-11T14:14:16;2.70;;;2.47;;
2119;SDS011;1066;52.540;13.420;2022-08-11T14:16:45;3.83;;;3.17;;
2119;SDS011;1066;52.540;13.420;2022-08-11T14:19:13;2.73;;;2.40;;
2119;SDS011;1066;52.540;13.420;2022-08-11T14:21:40;3.03;;;2.20;;
2119;SDS011;1066;52.540;13.420;2022-08-11T14:24:25;3.20;;;2.70;;
2119;SDS011;1066;52.540;13.420;2022-08-11T14:26:50;2.57;;;2.37;;
2119;SDS011;1066;52.540;13.420;2022-08-11T14:29:18;2.73;;;2.40;;
2119;SDS011;1066;52.540;13.420;2022-08-11T14:31:48;3.23;;;2.77;;
2119;SDS011;1066;52.540;13.420;2022-08-11T14:34:25;2.73;;;2.53;;
2119;SDS011;1066;52.540;13.420;2022-08-11T14:36:54;3.60;;;2.90;;
2119;SDS011;1066;52.540;13.420;2022-08-11T14:39:21;5.00;;;2.97;;
2119;SDS011;1066;52.540;13.420;2022-08-11T14:41:49;5.50;;;4.03;;
2119;SDS011;1066;52.540;13.420;2022-08-11T14:44:36;3.07;;;2.67;;
2119;SDS011;1066;52.540;13.420;2022-08-11T14:47:22;4.73;;;2.67;;
2119;SDS011;1066;52.540;13.420;2022-08-11T14:49:48;2.70;;;2.30;;
2119;SDS011;1066;52.540;13.420;2022-08-11T14:52:16;4.20;;;2.60;;
2119;SDS011;1066;52.540;13.420;2022-08-11T14:54:45;3.77;;;2.60;;
2119;SDS011;1066;52.540;13.420;2022-08-11T14:57:31;2.87;;;2.43;;
2119;SDS011;1066;52.540;13.420;2022-08-11T15:00:00;3.40;;;3.00;;
2119;SDS011;1066;52.540;13.420;2022-08-11T15:02:28;3.67;;;3.23;;
2119;SDS011;1066;52.540;13.420;2022-08-11T15:05:12;4.00;;;3.23;;
2119;SDS011;1066;52.540;13.420;2022-08-11T15:07:38;4.70;;;2.90;;
2119;SDS011;1066;52.540;13.420;2022-08-11T15:10:05;3.70;;;2.47;;
2119;SDS011;1066;52.540;13.420;2022-08-11T15:12:32;3.03;;;2.63;;
2119;SDS011;1066;52.540;13.420;2022-08-11T15:15:02;3.40;;;2.43;;
2119;SDS011;1066;52.540;13.420;2022-08-11T15:17:48;2.13;;;1.93;;
2119;SDS011;1066;52.540;13.420;2022-08-11T15:20:16;3.60;;;2.60;;
2119;SDS011;1066;52.540;13.420;2022-08-11T15:23:01;2.70;;;2.03;;
2119;SDS011;1066;52.540;13.420;2022-08-11T15:25:48;3.33;;;2.23;;
2119;SDS011;1066;52.540;13.420;2022-08-11T15:28:15;4.23;;;2.20;;
2119;SDS011;1066;52.540;13.420;2022-08-11T15:31:01;2.80;;;2.10;;
2119;SDS011;1066;52.540;13.420;2022-08-11T15:33:46;3.40;;;2.90;;
2119;SDS011;1066;52.540;13.420;2022-08-11T15:36:34;2.93;;;2.63;;
2119;SDS011;1066;52.540;13.420;2022-08-11T15:39:21;2.83;;;2.53;;
2119;SDS011;1066;52.540;13.420;2022-08-11T15:41:50;3.10;;;2.20;;
2119;SDS011;1066;52.540;13.420;2022-08-11T15:44:36;2.30;;;2.10;;
2119;SDS011;1066;52.540;13.420;2022-08-11T15:47:25;2.07;;;1.83;;
2119;SDS011;1066;52.540;13.420;2022-08-11T15:49:52;2.83;;;2.60;;
2119;SDS011;1066;52.540;13.420;2022-08-11T15:52:20;5.87;;;5.37;;
2119;SDS011;1066;52.540;13.420;2022-08-11T15:54:47;2.87;;;2.63;;
2119;SDS011;1066;52.540;13.420;2022-08-11T15:57:14;3.70;;;2.83;;
2119;SDS011;1066;52.540;13.420;2022-08-11T15:59:59;2.80;;;2.50;;
2119;SDS011;1066;52.540;13.420;2022-08-11T16:02:47;3.23;;;2.80;;
2119;SDS011;1066;52.540;13.420;2022-08-11T16:05:19;2.77;;;2.57;;
2119;SDS011;1066;52.540;13.420;2022-08-11T16:07:46;2.77;;;2.57;;
2119;SDS011;1066;52.540;13.420;2022-08-11T16:10:14;3.10;;;2.80;;
2119;SDS011;1066;52.540;13.420;2022-08-11T16:13:06;3.80;;;2.70;;
2119;SDS011;1066;52.540;13.420;2022-08-11T16:15:34;3.50;;;2.77;;
2119;SDS011;1066;52.540;13.420;2022-08-11T16:18:22;3.10;;;2.80;;
2119;SDS011;1066;52.540;13.420;2022-08-11T16:21:04;5.80;;;3.50;;
2119;SDS011;1066;52.540;13.420;2022-08-11T16:23:32;3.17;;;2.80;;
2119;SDS011;1066;52.540;13.420;2022-08-11T16:25:57;3.20;;;2.90;;
2119;SDS011;1066;52.540;13.420;2022-08-11T16:28:24;2.73;;;2.30;;
2119;SDS011;1066;52.540;13.420;2022-08-11T16:30:51;5.40;;;3.00;;
2119;SDS011;1066;52.540;13.420;2022-08-11T16:33:18;3.73;;;3.17;;
2119;SDS011;1066;52.540;13.420;2022-08-11T16:35:44;2.77;;;2.57;;
2119;SDS011;1066;52.540;13.420;2022-08-11T16:38:30;4.30;;;2.70;;
2119;SDS011;1066;52.540;13.420;2022-08-11T16:40:59;4.50;;;2.90;;
2119;SDS011;1066;52.540;13.420;2022-08-11T16:43:27;3.13;;;2.53;;
2119;SDS011;1066;52.540;13.420;2022-08-11T16:46:16;3.20;;;2.90;;
2119;SDS011;1066;52.540;13.420;2022-08-11T16:49:35;4.90;;;2.87;;
2119;SDS011;1066;52.540;13.420;2022-08-11T16:51:54;3.33;;;2.67;;
2119;SDS011;1066;52.540;13.420;2022-08-11T16:54:20;3.17;;;2.60;;
2119;SDS011;1066;52.540;13.420;2022-08-11T16:56:46;3.47;;;2.80;;
2119;SDS011;1066;52.540;13.420;2022-08-11T16:59:21;3.40;;;3.10;;
2119;SDS011;1066;52.540;13.420;2022-08-11T17:04:37;2.90;;;2.60;;
2119;SDS011;1066;52.540;13.420;2022-08-11T17:07:24;4.00;;;3.10;;
2119;SDS011;1066;52.540;13.420;2022-08-11T17:10:26;3.47;;;3.17;;
2119;SDS011;1066;52.540;13.420;2022-08-11T17:13:12;3.17;;;2.80;;
2119;SDS011;1066;52.540;13.420;2022-08-11T17:15:48;5.10;;;4.10;;
2119;SDS011;1066;52.540;13.420;2022-08-11T17:18:40;3.33;;;3.03;;
2119;SDS011;1066;52.540;13.420;2022-08-11T17:21:13;3.33;;;3.10;;
2119;SDS011;1066;52.540;13.420;2022-08-11T17:23:48;4.90;;;3.77;;
2119;SDS011;1066;52.540;13.420;2022-08-11T17:26:20;3.17;;;2.97;;
2119;SDS011;1066;52.540;13.420;2022-08-11T17:28:51;3.50;;;3.20;;
2119;SDS011;1066;52.540;13.420;2022-08-11T17:31:20;5.10;;;3.63;;
2119;SDS011;1066;52.540;13.420;2022-08-11T17:34:06;3.00;;;2.70;;
2119;SDS011;1066;52.540;13.420;2022-08-11T17:36:54;6.07;;;3.17;;
2119;SDS011;1066;52.540;13.420;2022-08-11T17:39:22;2.97;;;2.77;;
2119;SDS011;1066;52.540;13.420;2022-08-11T17:41:48;3.93;;;2.87;;
2119;SDS011;1066;52.540;13.420;2022-08-11T17:44:33;3.50;;;3.20;;
2119;SDS011;1066;52.540;13.420;2022-08-11T17:47:17;3.10;;;2.83;;
2119;SDS011;1066;52.540;13.420;2022-08-11T17:50:02;2.73;;;2.50;;
2119;SDS011;1066;52.540;13.420;2022-08-11T17:52:28;2.93;;;2.73;;
2119;SDS011;1066;52.540;13.420;2022-08-11T17:55:13;6.50;;;2.50;;
2119;SDS011;1066;52.540;13.420;2022-08-11T17:57:58;3.20;;;2.90;;
2119;SDS011;1066;52.540;13.420;2022-08-11T18:00:42;2.70;;;2.50;;
2119;SDS011;1066;52.540;13.420;2022-08-11T18:03:08;2.90;;;2.43;;
2119;SDS011;1066;52.540;13.420;2022-08-11T18:05:52;4.27;;;3.40;;
2119;SDS011;1066;52.540;13.420;2022-08-11T18:08:18;2.33;;;2.13;;
2119;SDS011;1066;52.540;13.420;2022-08-11T18:11:02;2.30;;;2.10;;
2119;SDS011;1066;52.540;13.420;2022-08-11T18:13:46;2.57;;;2.37;;
2119;SDS011;1066;52.540;13.420;2022-08-11T18:16:31;2.50;;;2.30;;
2119;SDS011;1066;52.540;13.420;2022-08-11T18:19:15;2.70;;;2.50;;
2119;SDS011;1066;52.540;13.420;2022-08-11T18:22:08;3.00;;;2.27;;
2119;SDS011;1066;52.540;13.420;2022-08-11T18:25:08;2.30;;;2.10;;
2119;SDS011;1066;52.540;13.420;2022-08-11T18:27:53;2.50;;;2.30;;
2119;SDS011;1066;52.540;13.420;2022-08-11T18:30:38;2.50;;;2.30;;
2119;SDS011;1066;52.540;13.420;2022-08-11T18:33:26;2.40;;;2.20;;
2119;SDS011;1066;52.540;13.420;2022-08-11T18:36:14;3.60;;;2.43;;
2119;SDS011;1066;52.540;13.420;2022-08-11T18:39:00;2.63;;;2.30;;
2119;SDS011;1066;52.540;13.420;2022-08-11T18:41:45;2.50;;;2.30;;
2119;SDS011;1066;52.540;13.420;2022-08-11T18:44:30;3.40;;;2.53;;
2119;SDS011;1066;52.540;13.420;2022-08-11T18:47:15;2.50;;;2.30;;
2119;SDS011;1066;52.540;13.420;2022-08-11T18:50:00;2.90;;;2.40;;
2119;SDS011;1066;52.540;13.420;2022-08-11T18:52:47;3.53;;;2.07;;
2119;SDS011;1066;52.540;13.420;2022-08-11T18:55:34;3.90;;;2.40;;
2119;SDS011;1066;52.540;13.420;2022-08-11T18:58:20;3.63;;;2.80;;
2119;SDS011;1066;52.540;13.420;2022-08-11T19:01:06;3.30;;;2.70;;
2119;SDS011;1066;52.540;13.420;2022-08-11T19:03:52;3.00;;;2.70;;
2119;SDS011;1066;52.540;13.420;2022-08-11T19:06:36;2.93;;;2.33;;
2119;SDS011;1066;52.540;13.420;2022-08-11T19:09:21;3.30;;;2.23;;
2119;SDS011;1066;52.540;13.420;2022-08-11T19:12:05;2.50;;;2.30;;
2119;SDS011;1066;52.540;13.420;2022-08-11T19:14:51;8.47;;;2.87;;
2119;SDS011;1066;52.540;13.420;2022-08-11T19:17:37;3.37;;;2.70;;
2119;SDS011;1066;52.540;13.420;2022-08-11T19:20:24;3.60;;;2.40;;
2119;SDS011;1066;52.540;13.420;2022-08-11T19:23:11;6.03;;;3.20;;